Карточка аэропорта ULMM

Внимание!
Информация на этой странице в стадии наполнения.
Если вы не увидели какой-то информации, или заметили неточность - пожалуйста сообщите нам!
Спасибо!
Команда XR-STAFF
Название аэропортаМурманск
Название аэропорта (англ.)Murmansk
Превышение262 ft. (79.9 m.)
Координаты68°46.902', 32°45.066'
Высота перехода900m
Эшелон переходаQFE>=753mm:FL050; QFE<753=>727:FL060; QFE<727:FL070
Коды ответчика3101-3117
Зона ОрВДСанкт-Петербург РПИ (ULLL)
Данные METARULMM 231930Z 10002MPS CAVOK 03/M04 Q1016 R13/090070 NOSIG RMK QFE755
Проноз погоды (TAF)ULMM 231650Z 2318/2418 10003G08MPS 9999 SCT030
NOTAMshow/hide NOTAM
AWOS   TABLE

Информация о ВПП

ВПП Длина ВПП (м.) Покрытие Курс ВПП Частота ILS
132500Асфальтобетон131110.3
312500Асфальтобетон311108.5

Диспетчерские позиции

Позывной Наименование органа УВД Частота
ULMM_TWRМурманск-Вышка120.7
ULMM_R_APPMurmansk Radar120.3



Спутниковое изображение